home / openregs

legislation_cosponsors

Cosponsors for tracked legislation. Distinguishes original cosponsors (signed on at introduction) from later additions. Linked to congress_members via bioguide_id.

Data license: Public Domain (U.S. Government data) · Data source: Federal Register API & Regulations.gov API

61 rows where bill_id = "115-hr-4202" sorted by sponsorship_date descending

✎ View and edit SQL

This data as json, CSV (advanced)

Suggested facets: party, state, sponsorship_date, sponsorship_date (date)

is_original_cosponsor 2

  • 0 53
  • 1 8
Link bill_id bioguide_id full_name party state sponsorship_date ▲ is_original_cosponsor
115-hr-4202,E000179 PACE Act 115-hr-4202 E000179 Rep. Engel, Eliot L. [D-NY-16] D NY 2018-10-02 0
115-hr-4202,E000297 PACE Act 115-hr-4202 E000297 Rep. Espaillat, Adriano [D-NY-13] D NY 2018-09-26 0
115-hr-4202,C001066 PACE Act 115-hr-4202 C001066 Rep. Castor, Kathy [D-FL-14] D FL 2018-09-26 0
115-hr-4202,M001199 PACE Act 115-hr-4202 M001199 Rep. Mast, Brian J. [R-FL-18] R FL 2018-09-26 0
115-hr-4202,P000608 PACE Act 115-hr-4202 P000608 Rep. Peters, Scott H. [D-CA-52] D CA 2018-09-13 0
115-hr-4202,L000563 PACE Act 115-hr-4202 L000563 Rep. Lipinski, Daniel [D-IL-3] D IL 2018-09-04 0
115-hr-4202,D000627 PACE Act 115-hr-4202 D000627 Rep. Demings, Val Butler [D-FL-10] D FL 2018-09-04 0
115-hr-4202,B001296 PACE Act 115-hr-4202 B001296 Rep. Boyle, Brendan F. [D-PA-13] D PA 2018-07-26 0
115-hr-4202,P000597 PACE Act 115-hr-4202 P000597 Rep. Pingree, Chellie [D-ME-1] D ME 2018-07-24 0
115-hr-4202,R000598 PACE Act 115-hr-4202 R000598 Rep. Rothfus, Keith J. [R-PA-12] R PA 2018-07-13 0
115-hr-4202,S001170 PACE Act 115-hr-4202 S001170 Rep. Shea-Porter, Carol [D-NH-1] D NH 2018-06-21 0
115-hr-4202,P000607 PACE Act 115-hr-4202 P000607 Rep. Pocan, Mark [D-WI-2] D WI 2018-06-21 0
115-hr-4202,K000381 PACE Act 115-hr-4202 K000381 Rep. Kilmer, Derek [D-WA-6] D WA 2018-06-08 0
115-hr-4202,M001137 PACE Act 115-hr-4202 M001137 Rep. Meeks, Gregory W. [D-NY-5] D NY 2018-06-08 0
115-hr-4202,M000312 PACE Act 115-hr-4202 M000312 Rep. McGovern, James P. [D-MA-2] D MA 2018-06-05 0
115-hr-4202,L000554 PACE Act 115-hr-4202 L000554 Rep. LoBiondo, Frank A. [R-NJ-2] R NJ 2018-04-12 0
115-hr-4202,S001191 PACE Act 115-hr-4202 S001191 Rep. Sinema, Kyrsten [D-AZ-9] D AZ 2018-03-20 0
115-hr-4202,B001270 PACE Act 115-hr-4202 B001270 Rep. Bass, Karen [D-CA-37] D CA 2018-02-27 0
115-hr-4202,F000464 PACE Act 115-hr-4202 F000464 Rep. Faso, John J. [R-NY-19] R NY 2018-02-27 0
115-hr-4202,B001303 PACE Act 115-hr-4202 B001303 Rep. Blunt Rochester, Lisa [D-DE-At Large] D DE 2018-02-08 0
115-hr-4202,L000565 PACE Act 115-hr-4202 L000565 Rep. Loebsack, David [D-IA-2] D IA 2018-02-02 0
115-hr-4202,C001105 PACE Act 115-hr-4202 C001105 Rep. Comstock, Barbara [R-VA-10] R VA 2018-02-02 0
115-hr-4202,M001185 PACE Act 115-hr-4202 M001185 Rep. Maloney, Sean Patrick [D-NY-18] D NY 2018-02-02 0
115-hr-4202,S001145 PACE Act 115-hr-4202 S001145 Rep. Schakowsky, Janice D. [D-IL-9] D IL 2018-02-02 0
115-hr-4202,S001199 PACE Act 115-hr-4202 S001199 Rep. Smucker, Lloyd [R-PA-16] R PA 2018-02-02 0
115-hr-4202,M001179 PACE Act 115-hr-4202 M001179 Rep. Marino, Tom [R-PA-10] R PA 2018-01-17 0
115-hr-4202,P000598 PACE Act 115-hr-4202 P000598 Rep. Polis, Jared [D-CO-2] D CO 2018-01-17 0
115-hr-4202,T000470 PACE Act 115-hr-4202 T000470 Rep. Tipton, Scott R. [R-CO-3] R CO 2018-01-09 0
115-hr-4202,B001298 PACE Act 115-hr-4202 B001298 Rep. Bacon, Don [R-NE-2] R NE 2017-12-21 0
115-hr-4202,L000582 PACE Act 115-hr-4202 L000582 Rep. Lieu, Ted [D-CA-33] D CA 2017-12-21 0
115-hr-4202,F000466 PACE Act 115-hr-4202 F000466 Rep. Fitzpatrick, Brian K. [R-PA-8] R PA 2017-12-20 0
115-hr-4202,C001106 PACE Act 115-hr-4202 C001106 Rep. Costello, Ryan A. [R-PA-6] R PA 2017-12-20 0
115-hr-4202,G000585 PACE Act 115-hr-4202 G000585 Rep. Gomez, Jimmy [D-CA-34] D CA 2017-12-14 0
115-hr-4202,R000486 PACE Act 115-hr-4202 R000486 Rep. Roybal-Allard, Lucille [D-CA-40] D CA 2017-12-14 0
115-hr-4202,W000797 PACE Act 115-hr-4202 W000797 Rep. Wasserman Schultz, Debbie [D-FL-23] D FL 2017-12-14 0
115-hr-4202,M001196 PACE Act 115-hr-4202 M001196 Rep. Moulton, Seth [D-MA-6] D MA 2017-12-11 0
115-hr-4202,C001084 PACE Act 115-hr-4202 C001084 Rep. Cicilline, David N. [D-RI-1] D RI 2017-12-11 0
115-hr-4202,S000480 PACE Act 115-hr-4202 S000480 Rep. Slaughter, Louise McIntosh [D-NY-25] D NY 2017-12-11 0
115-hr-4202,Q000023 PACE Act 115-hr-4202 Q000023 Rep. Quigley, Mike [D-IL-5] D IL 2017-12-11 0
115-hr-4202,L000585 PACE Act 115-hr-4202 L000585 Rep. LaHood, Darin [R-IL-18] R IL 2017-12-07 0
115-hr-4202,D000612 PACE Act 115-hr-4202 D000612 Rep. Denham, Jeff [R-CA-10] R CA 2017-12-07 0
115-hr-4202,R000487 PACE Act 115-hr-4202 R000487 Rep. Royce, Edward R. [R-CA-39] R CA 2017-12-07 0
115-hr-4202,B001293 PACE Act 115-hr-4202 B001293 Rep. Bishop, Mike [R-MI-8] R MI 2017-12-07 0
115-hr-4202,T000478 PACE Act 115-hr-4202 T000478 Rep. Tenney, Claudia [R-NY-22] R NY 2017-12-07 0
115-hr-4202,D000191 PACE Act 115-hr-4202 D000191 Rep. DeFazio, Peter A. [D-OR-4] D OR 2017-12-07 0
115-hr-4202,L000559 PACE Act 115-hr-4202 L000559 Rep. Langevin, James R. [D-RI-2] D RI 2017-12-07 0
115-hr-4202,S000510 PACE Act 115-hr-4202 S000510 Rep. Smith, Adam [D-WA-9] D WA 2017-12-07 0
115-hr-4202,H001059 PACE Act 115-hr-4202 H001059 Rep. Hultgren, Randy [R-IL-14] R IL 2017-12-01 0
115-hr-4202,B001269 PACE Act 115-hr-4202 B001269 Rep. Barletta, Lou [R-PA-11] R PA 2017-12-01 0
115-hr-4202,T000467 PACE Act 115-hr-4202 T000467 Rep. Thompson, Glenn [R-PA-5] R PA 2017-11-29 0
115-hr-4202,T000468 PACE Act 115-hr-4202 T000468 Rep. Titus, Dina [D-NV-1] D NV 2017-11-16 0
115-hr-4202,S001183 PACE Act 115-hr-4202 S001183 Rep. Schweikert, David [R-AZ-6] R AZ 2017-11-16 0
115-hr-4202,G000578 PACE Act 115-hr-4202 G000578 Rep. Gaetz, Matt [R-FL-1] R FL 2017-11-09 0
115-hr-4202,B000574 PACE Act 115-hr-4202 B000574 Rep. Blumenauer, Earl [D-OR-3] D OR 2017-11-01 1
115-hr-4202,N000127 PACE Act 115-hr-4202 N000127 Rep. Nolan, Richard M. [D-MN-8] D MN 2017-11-01 1
115-hr-4202,S000344 PACE Act 115-hr-4202 S000344 Rep. Sherman, Brad [D-CA-30] D CA 2017-11-01 1
115-hr-4202,C001097 PACE Act 115-hr-4202 C001097 Rep. Cárdenas, Tony [D-CA-29] D CA 2017-11-01 1
115-hr-4202,Y000063 PACE Act 115-hr-4202 Y000063 Rep. Yoder, Kevin [R-KS-3] R KS 2017-11-01 1
115-hr-4202,K000387 PACE Act 115-hr-4202 K000387 Rep. Knight, Stephen [R-CA-25] R CA 2017-11-01 1
115-hr-4202,D000619 PACE Act 115-hr-4202 D000619 Rep. Davis, Rodney [R-IL-13] R IL 2017-11-01 1
115-hr-4202,B001260 PACE Act 115-hr-4202 B001260 Rep. Buchanan, Vern [R-FL-16] R FL 2017-11-01 1

Advanced export

JSON shape: default, array, newline-delimited, object

CSV options:

CREATE TABLE legislation_cosponsors (
    bill_id TEXT NOT NULL REFERENCES legislation(bill_id),
    bioguide_id TEXT NOT NULL,
    full_name TEXT,
    party TEXT,
    state TEXT,
    sponsorship_date TEXT,
    is_original_cosponsor INTEGER,
    PRIMARY KEY (bill_id, bioguide_id)
);
CREATE INDEX idx_lc_bioguide ON legislation_cosponsors(bioguide_id);
CREATE INDEX idx_lc_bill ON legislation_cosponsors(bill_id);
CREATE INDEX idx_lc_original ON legislation_cosponsors(is_original_cosponsor);
Powered by Datasette · Queries took 889.546ms · Data license: Public Domain (U.S. Government data) · Data source: Federal Register API & Regulations.gov API